createdAt,value
2018-06-16T00:01:32.047Z,6.17
2018-06-16T00:04:04.247Z,6.40
2018-06-16T00:09:14.600Z,6.47
2018-06-16T00:11:46.253Z,6.37
2018-06-16T00:14:17.862Z,5.80
2018-06-16T00:16:49.243Z,6.20
2018-06-16T00:19:21.130Z,6.80
2018-06-16T00:21:52.867Z,6.40
2018-06-16T00:24:24.080Z,6.53
2018-06-16T00:26:58.538Z,6.40
2018-06-16T00:29:29.832Z,6.30
2018-06-16T00:32:01.675Z,6.40
2018-06-16T00:34:34.555Z,6.43
2018-06-16T00:37:06.562Z,6.63
2018-06-16T00:39:38.631Z,6.93
2018-06-16T00:42:09.883Z,6.17
2018-06-16T00:44:41.044Z,6.70
2018-06-16T00:47:12.699Z,6.60
2018-06-16T00:49:44.452Z,6.00
2018-06-16T00:52:16.335Z,6.57
2018-06-16T00:54:48.725Z,6.47
2018-06-16T00:57:32.148Z,6.30
2018-06-16T01:00:04.058Z,6.33
2018-06-16T01:02:35.951Z,6.80
2018-06-16T01:05:07.848Z,6.90
2018-06-16T01:07:39.814Z,6.80
2018-06-16T01:10:12.368Z,7.17
2018-06-16T01:12:45.188Z,7.30
2018-06-16T01:15:17.308Z,6.40
2018-06-16T01:17:48.883Z,7.83
2018-06-16T01:20:21.238Z,7.80
2018-06-16T01:22:53.780Z,7.50
2018-06-16T01:25:26.859Z,7.07
2018-06-16T01:28:00.375Z,7.40
2018-06-16T01:30:32.157Z,7.40
2018-06-16T01:33:04.197Z,7.17
2018-06-16T01:35:36.043Z,7.10
2018-06-16T01:38:09.744Z,7.10
2018-06-16T01:40:41.753Z,6.97
2018-06-16T01:43:13.443Z,7.93
2018-06-16T01:45:45.239Z,7.13
2018-06-16T01:48:19.914Z,7.60
2018-06-16T01:50:53.227Z,7.37
2018-06-16T01:53:26.340Z,6.90
2018-06-16T01:55:57.767Z,7.30
2018-06-16T01:58:30.532Z,7.70
2018-06-16T02:01:02.552Z,7.00
2018-06-16T02:03:34.227Z,7.20
2018-06-16T02:06:06.583Z,7.40
2018-06-16T02:08:38.235Z,7.10
2018-06-16T02:11:10.915Z,7.40
2018-06-16T02:13:42.530Z,7.80
2018-06-16T02:16:13.971Z,7.07
2018-06-16T02:18:45.828Z,8.00
2018-06-16T02:21:18.530Z,7.00
2018-06-16T02:23:50.706Z,7.70
2018-06-16T02:26:24.295Z,7.90
2018-06-16T02:28:55.884Z,8.10
2018-06-16T02:31:28.624Z,7.83
2018-06-16T02:34:01.090Z,6.70
2018-06-16T02:36:33.173Z,7.60
2018-06-16T02:39:05.679Z,7.40
2018-06-16T02:41:37.625Z,7.70
2018-06-16T02:44:09.872Z,7.83
2018-06-16T02:46:42.256Z,7.97
2018-06-16T02:49:13.853Z,7.13
2018-06-16T02:51:45.688Z,7.37
2018-06-16T02:54:17.922Z,7.27
2018-06-16T02:56:50.113Z,7.30
2018-06-16T02:59:21.928Z,7.70
2018-06-16T03:01:55.718Z,7.57
2018-06-16T03:04:27.695Z,7.10
2018-06-16T03:07:00.279Z,7.43
2018-06-16T03:09:32.115Z,7.20
2018-06-16T03:12:04.313Z,7.17
2018-06-16T03:14:36.144Z,7.53
2018-06-16T03:17:07.868Z,6.90
2018-06-16T03:19:39.745Z,7.33
2018-06-16T03:22:11.627Z,7.73
2018-06-16T03:24:43.357Z,8.33
2018-06-16T03:27:15.835Z,9.07
2018-06-16T03:29:47.682Z,8.30
2018-06-16T03:32:19.202Z,8.90
2018-06-16T03:34:51.359Z,9.00
2018-06-16T03:37:23.624Z,7.43
2018-06-16T03:39:56.507Z,8.23
2018-06-16T03:42:28.127Z,8.67
2018-06-16T03:44:59.983Z,9.47
2018-06-16T03:47:32.177Z,8.20
2018-06-16T03:50:04.796Z,8.00
2018-06-16T03:52:37.603Z,8.30
2018-06-16T03:55:09.821Z,8.60
2018-06-16T03:57:42.080Z,8.70
2018-06-16T04:00:13.756Z,8.70
2018-06-16T04:02:45.616Z,7.30
2018-06-16T04:05:17.774Z,8.20
2018-06-16T04:07:53.128Z,9.20
2018-06-16T04:10:25.859Z,8.40
2018-06-16T04:12:57.935Z,7.33
2018-06-16T04:15:30.075Z,7.07
2018-06-16T04:18:01.870Z,8.03
2018-06-16T04:20:34.523Z,8.37
2018-06-16T04:23:06.853Z,8.20
2018-06-16T04:25:38.888Z,8.03
2018-06-16T04:28:11.003Z,8.93
2018-06-16T04:30:42.779Z,7.53
2018-06-16T04:33:14.669Z,7.70
2018-06-16T04:35:46.571Z,7.50
2018-06-16T04:38:18.232Z,7.70
2018-06-16T04:40:50.137Z,8.20
2018-06-16T04:43:22.083Z,8.20
2018-06-16T04:45:54.937Z,7.73
2018-06-16T04:48:26.624Z,7.80
2018-06-16T04:50:59.031Z,7.60
2018-06-16T04:53:30.798Z,8.40
2018-06-16T04:56:02.879Z,7.13
2018-06-16T04:58:36.282Z,7.60
2018-06-16T05:01:10.523Z,7.90
2018-06-16T05:03:42.698Z,7.93
2018-06-16T05:06:14.358Z,7.67
2018-06-16T05:08:46.042Z,7.33
2018-06-16T05:11:19.648Z,7.13
2018-06-16T05:13:51.701Z,7.80
2018-06-16T05:16:23.693Z,7.40
2018-06-16T05:18:55.870Z,7.60
2018-06-16T05:21:30.075Z,8.30
2018-06-16T05:24:04.515Z,7.73
2018-06-16T05:26:40.016Z,7.87
2018-06-16T05:29:13.606Z,7.50
2018-06-16T05:31:45.466Z,8.43
2018-06-16T05:34:17.116Z,7.40
2018-06-16T05:36:48.789Z,7.73
2018-06-16T05:39:22.918Z,7.60
2018-06-16T05:41:55.066Z,7.43
2018-06-16T05:44:26.720Z,8.20
2018-06-16T05:46:58.548Z,7.93
2018-06-16T05:49:30.854Z,8.00
2018-06-16T05:52:02.555Z,7.90
2018-06-16T05:54:34.860Z,7.67
2018-06-16T05:57:06.135Z,9.37
2018-06-16T05:59:38.109Z,8.67
2018-06-16T06:02:09.882Z,8.80
2018-06-16T06:04:41.081Z,7.53
2018-06-16T06:07:12.381Z,8.23
2018-06-16T06:09:43.936Z,7.53
2018-06-16T06:12:17.621Z,8.43
2018-06-16T06:14:51.276Z,8.23
2018-06-16T06:17:23.812Z,7.53
2018-06-16T06:19:56.197Z,8.37
2018-06-16T06:22:28.000Z,8.20
2018-06-16T06:25:00.372Z,7.90
2018-06-16T06:27:32.170Z,8.67
2018-06-16T06:30:03.746Z,7.50
2018-06-16T06:32:35.014Z,8.10
2018-06-16T06:35:07.611Z,7.40
2018-06-16T06:37:39.318Z,7.80
2018-06-16T06:40:13.473Z,6.83
2018-06-16T06:42:45.328Z,6.93
2018-06-16T06:45:16.679Z,6.80
2018-06-16T06:47:48.050Z,8.03
2018-06-16T06:50:19.792Z,7.50
2018-06-16T06:52:51.140Z,6.63
2018-06-16T06:55:22.917Z,7.00
2018-06-16T06:57:55.499Z,6.67
2018-06-16T07:00:27.839Z,7.70
2018-06-16T07:02:57.862Z,7.07
2018-06-16T07:05:30.662Z,7.10
2018-06-16T07:08:03.249Z,6.57
2018-06-16T07:10:35.612Z,6.57
2018-06-16T07:13:13.785Z,6.83
2018-06-16T07:15:45.321Z,6.47
2018-06-16T07:18:16.968Z,7.30
2018-06-16T07:20:48.683Z,6.20
2018-06-16T07:23:20.776Z,7.07
2018-06-16T07:25:52.532Z,6.43
2018-06-16T07:28:24.812Z,5.97
2018-06-16T07:30:57.758Z,6.43
2018-06-16T07:33:30.773Z,6.30
2018-06-16T07:36:02.811Z,5.57
2018-06-16T07:38:35.819Z,5.87
2018-06-16T07:41:10.046Z,6.40
2018-06-16T07:43:44.790Z,6.57
2018-06-16T07:46:20.380Z,6.63
2018-06-16T07:48:52.475Z,5.57
2018-06-16T07:51:24.233Z,6.50
2018-06-16T07:53:55.973Z,5.80
2018-06-16T07:56:27.604Z,6.67
2018-06-16T07:58:59.304Z,5.70
2018-06-16T08:01:31.530Z,5.67
2018-06-16T08:04:03.485Z,5.10
2018-06-16T08:06:35.709Z,5.60
2018-06-16T08:09:11.049Z,4.00
2018-06-16T08:11:44.337Z,5.40
2018-06-16T08:14:15.900Z,5.30
2018-06-16T08:16:47.282Z,5.37
2018-06-16T08:19:18.891Z,4.93
2018-06-16T08:21:52.777Z,5.00
2018-06-16T08:24:24.622Z,5.20
2018-06-16T08:26:56.091Z,4.57
2018-06-16T08:29:28.971Z,5.43
2018-06-16T08:32:01.601Z,5.50
2018-06-16T08:34:33.075Z,4.50
2018-06-16T08:37:05.258Z,4.30
2018-06-16T08:39:37.213Z,4.77
2018-06-16T08:42:09.602Z,4.90
2018-06-16T08:44:41.523Z,5.10
2018-06-16T08:47:14.178Z,4.67
2018-06-16T08:49:46.620Z,4.40
2018-06-16T08:52:20.839Z,4.53
2018-06-16T08:54:52.339Z,4.30
2018-06-16T08:57:24.909Z,4.30
2018-06-16T08:59:57.619Z,4.10
2018-06-16T09:02:32.579Z,4.43
2018-06-16T09:05:04.632Z,4.10
2018-06-16T09:07:36.227Z,4.27
2018-06-16T09:10:08.368Z,4.60
2018-06-16T09:12:40.044Z,4.00
2018-06-16T09:15:11.218Z,3.87
2018-06-16T09:17:43.205Z,3.87
2018-06-16T09:20:14.694Z,4.00
2018-06-16T09:22:47.360Z,4.20
2018-06-16T09:25:20.630Z,4.30
2018-06-16T09:27:52.416Z,3.30
2018-06-16T09:30:24.564Z,3.07
2018-06-16T09:32:56.671Z,3.57
2018-06-16T09:35:28.445Z,2.80
2018-06-16T09:38:01.578Z,3.50
2018-06-16T09:40:34.792Z,3.27
2018-06-16T09:43:06.423Z,3.20
2018-06-16T09:45:37.675Z,3.23
2018-06-16T09:48:09.060Z,3.70
2018-06-16T09:50:40.675Z,3.77
2018-06-16T09:53:11.974Z,3.50
2018-06-16T09:55:44.615Z,3.17
2018-06-16T09:58:19.248Z,3.43
2018-06-16T10:00:50.628Z,3.10
2018-06-16T10:03:22.488Z,3.47
2018-06-16T10:05:54.274Z,4.30
2018-06-16T10:08:25.890Z,3.70
2018-06-16T10:10:57.242Z,3.83
2018-06-16T10:13:28.844Z,2.93
2018-06-16T10:16:01.655Z,3.27
2018-06-16T10:18:33.498Z,3.47
2018-06-16T10:21:06.220Z,3.40
2018-06-16T10:23:38.628Z,3.53
2018-06-16T10:26:10.901Z,3.13
2018-06-16T10:28:43.890Z,3.37
2018-06-16T10:31:15.527Z,3.33
2018-06-16T10:33:47.470Z,3.00
2018-06-16T10:36:19.297Z,8.73
2018-06-16T10:38:50.703Z,3.10
2018-06-16T10:41:22.583Z,3.27
2018-06-16T10:43:54.853Z,3.50
2018-06-16T10:46:30.187Z,3.60
2018-06-16T10:49:01.926Z,3.40
2018-06-16T10:51:33.845Z,3.50
2018-06-16T10:54:05.283Z,3.40
2018-06-16T10:56:36.733Z,3.33
2018-06-16T10:59:08.321Z,3.13
2018-06-16T11:01:40.215Z,3.10
2018-06-16T11:04:11.397Z,2.80
2018-06-16T11:06:43.040Z,3.80
2018-06-16T11:09:14.683Z,3.43
2018-06-16T11:11:46.145Z,3.40
2018-06-16T11:14:17.758Z,3.13
2018-06-16T11:16:50.313Z,3.77
2018-06-16T11:19:22.023Z,3.60
2018-06-16T11:21:53.411Z,3.80
2018-06-16T11:24:25.343Z,3.80
2018-06-16T11:26:56.946Z,3.30
2018-06-16T11:29:30.838Z,3.40
2018-06-16T11:32:03.152Z,3.67
2018-06-16T11:34:37.200Z,3.60
2018-06-16T11:37:08.746Z,3.43
2018-06-16T11:39:41.009Z,3.33
2018-06-16T11:42:12.499Z,3.57
2018-06-16T11:44:45.006Z,3.20
2018-06-16T11:47:17.619Z,3.33
2018-06-16T11:49:48.925Z,3.30
2018-06-16T11:52:21.276Z,3.33
2018-06-16T11:54:53.726Z,2.63
2018-06-16T11:57:26.144Z,3.30
2018-06-16T11:59:57.675Z,3.50
2018-06-16T12:02:29.579Z,3.33
2018-06-16T12:05:01.161Z,3.17
2018-06-16T12:07:32.704Z,3.50
2018-06-16T12:10:04.233Z,3.10
2018-06-16T12:12:36.793Z,2.73
2018-06-16T12:15:09.020Z,3.00
2018-06-16T12:17:40.409Z,2.90
2018-06-16T12:20:13.010Z,3.27
2018-06-16T12:22:44.380Z,3.30
2018-06-16T12:25:15.645Z,3.10
2018-06-16T12:27:47.326Z,3.27
2018-06-16T12:30:19.392Z,2.73
2018-06-16T12:32:52.058Z,2.87
2018-06-16T12:35:24.311Z,3.13
2018-06-16T12:37:56.306Z,3.20
2018-06-16T12:40:32.109Z,2.83
2018-06-16T12:43:09.599Z,3.23
2018-06-16T12:45:44.499Z,3.70
2018-06-16T12:48:21.008Z,3.33
2018-06-16T12:50:54.630Z,2.60
2018-06-16T12:53:26.026Z,3.30
2018-06-16T12:55:57.682Z,3.20
2018-06-16T12:58:29.370Z,3.03
2018-06-16T13:01:02.254Z,3.03
2018-06-16T13:03:34.195Z,2.30
2018-06-16T13:06:05.992Z,2.93
2018-06-16T13:08:37.236Z,3.60
2018-06-16T13:11:09.396Z,3.10
2018-06-16T13:13:40.948Z,2.70
2018-06-16T13:16:14.422Z,2.77
2018-06-16T13:18:45.925Z,2.77
2018-06-16T13:21:17.237Z,3.57
2018-06-16T13:23:49.591Z,2.60
2018-06-16T13:26:20.986Z,2.70
2018-06-16T13:28:54.765Z,3.20
2018-06-16T13:31:27.267Z,2.60
2018-06-16T13:33:59.315Z,3.20
2018-06-16T13:36:31.246Z,2.80
2018-06-16T13:39:03.914Z,3.00
2018-06-16T13:41:35.820Z,2.97
2018-06-16T13:44:10.297Z,3.30
2018-06-16T13:46:42.344Z,2.80
2018-06-16T13:49:15.729Z,2.80
2018-06-16T13:51:47.077Z,2.43
2018-06-16T13:54:18.759Z,3.10
2018-06-16T13:56:49.995Z,2.43
2018-06-16T13:59:21.411Z,2.70
2018-06-16T14:01:53.909Z,3.63
2018-06-16T14:04:25.393Z,2.50
2018-06-16T14:06:57.760Z,2.43
2018-06-16T14:09:29.972Z,2.83
2018-06-16T14:12:01.379Z,2.90
2018-06-16T14:14:35.312Z,2.73
2018-06-16T14:17:06.989Z,2.33
2018-06-16T14:19:39.678Z,2.57
2018-06-16T14:22:11.307Z,2.57
2018-06-16T14:24:42.748Z,2.77
2018-06-16T14:27:14.852Z,2.73
2018-06-16T14:29:46.136Z,2.77
2018-06-16T14:32:19.391Z,3.50
2018-06-16T14:34:51.450Z,2.80
2018-06-16T14:37:22.869Z,3.30
2018-06-16T14:39:55.041Z,2.63
2018-06-16T14:42:26.391Z,2.67
2018-06-16T14:44:59.582Z,3.07
2018-06-16T14:47:32.492Z,2.60
2018-06-16T14:50:04.302Z,3.40
2018-06-16T14:52:35.929Z,2.97
2018-06-16T14:55:08.504Z,2.50
2018-06-16T14:57:40.499Z,2.60
2018-06-16T15:00:13.638Z,2.80
2018-06-16T15:02:45.348Z,3.43
2018-06-16T15:05:16.818Z,2.57
2018-06-16T15:07:48.644Z,2.77
2018-06-16T15:10:20.112Z,3.00
2018-06-16T15:12:52.480Z,2.70
2018-06-16T15:15:25.497Z,2.77
2018-06-16T15:17:57.843Z,3.03
2018-06-16T15:20:29.207Z,2.67
2018-06-16T15:23:03.046Z,2.90
2018-06-16T15:25:35.695Z,2.70
2018-06-16T15:28:08.105Z,4.00
2018-06-16T15:30:39.951Z,2.97
2018-06-16T15:33:12.072Z,2.97
2018-06-16T15:35:43.852Z,2.80
2018-06-16T15:38:15.350Z,3.47
2018-06-16T15:40:47.390Z,3.70
2018-06-16T15:43:21.250Z,3.07
2018-06-16T15:45:52.795Z,2.77
2018-06-16T15:48:25.129Z,3.43
2018-06-16T15:50:58.992Z,3.40
2018-06-16T15:53:31.232Z,3.50
2018-06-16T15:56:03.188Z,3.70
2018-06-16T15:58:34.645Z,4.80
2018-06-16T16:01:08.810Z,3.73
2018-06-16T16:03:41.570Z,3.00
2018-06-16T16:06:13.568Z,3.10
2018-06-16T16:08:46.409Z,2.80
2018-06-16T16:11:17.827Z,3.03
2018-06-16T16:13:50.617Z,2.93
2018-06-16T16:16:23.189Z,3.13
2018-06-16T16:18:54.681Z,4.10
2018-06-16T16:21:26.747Z,3.83
2018-06-16T16:23:58.858Z,3.10
2018-06-16T16:26:30.359Z,3.63
2018-06-16T16:29:03.815Z,3.27
2018-06-16T16:31:36.616Z,4.50
2018-06-16T16:34:11.466Z,4.37
2018-06-16T16:36:43.142Z,4.33
2018-06-16T16:39:15.038Z,15.13
2018-06-16T16:41:46.877Z,5.50
2018-06-16T16:44:18.721Z,4.00
2018-06-16T16:46:51.583Z,19.43
2018-06-16T16:49:23.176Z,3.83
2018-06-16T16:51:54.657Z,15.10
2018-06-16T16:54:26.016Z,10.67
2018-06-16T16:56:57.879Z,15.53
2018-06-16T16:59:29.279Z,7.53
2018-06-16T17:02:04.700Z,7.50
2018-06-16T17:04:36.394Z,9.87
2018-06-16T17:07:07.920Z,7.30
2018-06-16T17:09:39.763Z,5.20
2018-06-16T17:12:11.639Z,4.80
2018-06-16T17:14:43.449Z,4.90
2018-06-16T17:17:15.335Z,4.73
2018-06-16T17:19:47.740Z,11.13
2018-06-16T17:22:19.053Z,5.23
2018-06-16T17:24:51.437Z,4.90
2018-06-16T17:27:23.578Z,4.00
2018-06-16T17:29:55.606Z,4.03
2018-06-16T17:32:27.667Z,4.73
2018-06-16T17:35:00.259Z,3.57
2018-06-16T17:37:32.812Z,3.53
2018-06-16T17:40:06.169Z,3.80
2018-06-16T17:42:37.860Z,5.30
2018-06-16T17:45:09.566Z,5.30
2018-06-16T17:47:41.688Z,4.43
2018-06-16T17:50:14.159Z,4.13
2018-06-16T17:52:46.234Z,5.10
2018-06-16T17:55:19.665Z,4.20
2018-06-16T17:57:51.179Z,3.60
2018-06-16T18:00:24.438Z,4.27
2018-06-16T18:02:55.890Z,4.40
2018-06-16T18:05:28.537Z,6.90
2018-06-16T18:08:01.249Z,5.23
2018-06-16T18:10:32.830Z,4.03
2018-06-16T18:13:04.716Z,4.90
2018-06-16T18:15:38.811Z,8.90
2018-06-16T18:18:14.493Z,5.70
2018-06-16T18:20:47.044Z,8.17
2018-06-16T18:23:20.351Z,7.43
2018-06-16T18:28:36.333Z,5.77
2018-06-16T18:31:08.386Z,4.00
2018-06-16T18:33:42.465Z,4.53
2018-06-16T18:36:14.377Z,3.77
2018-06-16T18:38:52.148Z,4.23
2018-06-16T18:41:25.783Z,3.20
2018-06-16T18:43:59.704Z,3.97
2018-06-16T18:46:31.253Z,3.83
2018-06-16T18:49:04.074Z,4.17
2018-06-16T18:51:38.954Z,4.60
2018-06-16T18:54:14.319Z,4.50
2018-06-16T18:56:48.840Z,4.70
2018-06-16T18:59:21.778Z,3.80
2018-06-16T19:01:55.576Z,4.37
2018-06-16T19:04:27.436Z,5.20
2018-06-16T19:06:58.944Z,5.10
2018-06-16T19:09:31.071Z,4.67
2018-06-16T19:12:04.976Z,4.23
2018-06-16T19:14:37.439Z,4.03
2018-06-16T19:17:10.256Z,4.00
2018-06-16T19:19:41.999Z,4.80
2018-06-16T19:22:14.121Z,4.97
2018-06-16T19:24:46.663Z,5.00
2018-06-16T19:27:21.527Z,4.60
2018-06-16T19:29:53.750Z,4.63
2018-06-16T19:32:25.985Z,5.13
2018-06-16T19:34:57.345Z,5.23
2018-06-16T19:37:30.231Z,5.70
2018-06-16T19:40:01.868Z,4.80
2018-06-16T19:42:35.735Z,4.83
2018-06-16T19:45:09.644Z,5.33
2018-06-16T19:47:41.690Z,4.97
2018-06-16T19:50:13.703Z,5.70
2018-06-16T19:52:45.552Z,5.27
2018-06-16T19:55:17.907Z,5.13
2018-06-16T19:57:50.033Z,5.30
2018-06-16T20:00:21.378Z,5.57
2018-06-16T20:02:53.109Z,5.30
2018-06-16T20:05:25.499Z,5.90
2018-06-16T20:07:59.095Z,5.60
2018-06-16T20:10:34.014Z,5.20
2018-06-16T20:13:07.169Z,5.53
2018-06-16T20:15:39.218Z,5.73
2018-06-16T20:18:11.878Z,5.43
2018-06-16T20:20:43.499Z,6.00
2018-06-16T20:23:19.146Z,5.10
2018-06-16T20:25:52.111Z,6.30
2018-06-16T20:28:26.131Z,6.70
2018-06-16T20:30:58.123Z,6.40
2018-06-16T20:33:29.718Z,5.80
2018-06-16T20:36:01.819Z,6.83
2018-06-16T20:38:34.201Z,7.13
2018-06-16T20:41:07.492Z,6.60
2018-06-16T20:43:40.176Z,6.50
2018-06-16T20:46:12.750Z,6.40
2018-06-16T20:48:44.623Z,5.90
2018-06-16T20:51:17.225Z,6.00
2018-06-16T20:53:49.183Z,6.47
2018-06-16T20:56:20.600Z,7.00
2018-06-16T20:58:51.925Z,6.23
2018-06-16T21:01:23.699Z,6.70
2018-06-16T21:03:55.886Z,6.20
2018-06-16T21:06:29.818Z,6.40
2018-06-16T21:09:02.385Z,6.53
2018-06-16T21:11:36.423Z,6.13
2018-06-16T21:14:08.320Z,7.57
2018-06-16T21:16:40.165Z,7.40
2018-06-16T21:19:11.391Z,7.53
2018-06-16T21:21:43.042Z,7.00
2018-06-16T21:24:15.169Z,6.67
2018-06-16T21:26:47.291Z,6.70
2018-06-16T21:29:19.049Z,6.43
2018-06-16T21:31:50.391Z,6.63
2018-06-16T21:34:22.588Z,6.43
2018-06-16T21:36:53.983Z,6.33
2018-06-16T21:39:25.349Z,6.23
2018-06-16T21:41:56.930Z,6.10
2018-06-16T21:44:28.505Z,6.23
2018-06-16T21:46:59.903Z,6.80
2018-06-16T21:49:31.579Z,6.70
2018-06-16T21:52:04.370Z,7.00
2018-06-16T21:54:36.675Z,5.70
2018-06-16T21:57:08.064Z,6.67
2018-06-16T21:59:40.255Z,6.00
2018-06-16T22:02:15.008Z,6.93
2018-06-16T22:04:46.975Z,5.93
2018-06-16T22:07:18.500Z,6.40
2018-06-16T22:09:49.810Z,6.17
2018-06-16T22:12:21.592Z,5.53
2018-06-16T22:14:53.913Z,5.30
2018-06-16T22:17:25.551Z,5.50
2018-06-16T22:19:57.492Z,6.50
2018-06-16T22:22:30.872Z,6.63
2018-06-16T22:25:02.449Z,5.20
2018-06-16T22:27:34.092Z,5.70
2018-06-16T22:30:05.687Z,5.40
2018-06-16T22:32:38.000Z,5.47
2018-06-16T22:35:09.546Z,5.20
2018-06-16T22:37:40.950Z,5.70
2018-06-16T22:40:12.853Z,5.73
2018-06-16T22:42:44.623Z,5.53
2018-06-16T22:45:16.038Z,6.13
2018-06-16T22:47:47.715Z,5.87
2018-06-16T22:50:20.788Z,5.97
2018-06-16T22:52:52.044Z,5.97
2018-06-16T22:55:23.636Z,6.23
2018-06-16T22:57:55.580Z,5.83
2018-06-16T23:00:29.207Z,5.53
2018-06-16T23:03:01.143Z,6.40
2018-06-16T23:05:32.569Z,5.67
2018-06-16T23:08:03.768Z,6.30
2018-06-16T23:10:36.142Z,5.93
2018-06-16T23:13:07.927Z,5.43
2018-06-16T23:15:39.164Z,5.90
2018-06-16T23:18:11.863Z,5.77
2018-06-16T23:20:44.676Z,5.90
2018-06-16T23:23:16.482Z,6.30
2018-06-16T23:25:48.740Z,6.43
2018-06-16T23:28:21.317Z,5.60
2018-06-16T23:30:55.218Z,6.07
2018-06-16T23:33:27.336Z,5.63
2018-06-16T23:35:58.683Z,5.60
2018-06-16T23:38:30.188Z,5.77
2018-06-16T23:41:04.174Z,6.67
2018-06-16T23:43:35.991Z,6.10
2018-06-16T23:46:07.816Z,6.47
2018-06-16T23:48:39.563Z,5.87
2018-06-16T23:51:11.468Z,6.30
2018-06-16T23:53:42.632Z,6.97
2018-06-16T23:56:14.153Z,6.40
2018-06-16T23:58:45.988Z,6.60
